createdAt,value
2023-03-01T00:00:06.297Z,6.72
2023-03-01T00:02:33.503Z,5.50
2023-03-01T00:05:00.764Z,7.55
2023-03-01T00:07:27.914Z,4.93
2023-03-01T00:09:55.060Z,5.97
2023-03-01T00:12:22.253Z,6.88
2023-03-01T00:14:49.437Z,6.82
2023-03-01T00:17:16.616Z,7.40
2023-03-01T00:19:43.811Z,8.80
2023-03-01T00:22:10.945Z,7.85
2023-03-01T00:24:38.244Z,9.20
2023-03-01T00:27:05.387Z,6.88
2023-03-01T00:29:32.533Z,5.72
2023-03-01T00:31:59.742Z,6.72
2023-03-01T00:34:26.918Z,6.35
2023-03-01T00:36:54.065Z,8.48
2023-03-01T00:39:21.222Z,6.75
2023-03-01T00:41:48.346Z,6.57
2023-03-01T00:44:15.502Z,5.82
2023-03-01T00:46:42.689Z,5.15
2023-03-01T00:49:09.910Z,5.70
2023-03-01T00:51:37.224Z,7.20
2023-03-01T00:54:04.544Z,6.57
2023-03-01T00:56:32.215Z,6.70
2023-03-01T00:58:59.587Z,5.07
2023-03-01T01:01:28.496Z,5.90
2023-03-01T01:03:56.855Z,5.82
2023-03-01T01:06:24.974Z,6.70
2023-03-01T01:08:52.190Z,5.65
2023-03-01T01:11:19.467Z,6.03
2023-03-01T01:13:47.238Z,5.43
2023-03-01T01:16:14.576Z,4.93
2023-03-01T01:18:41.739Z,5.07
2023-03-01T01:21:09.828Z,5.80
2023-03-01T01:23:37.135Z,5.43
2023-03-01T01:26:08.205Z,5.60
2023-03-01T01:28:35.703Z,4.90
2023-03-01T01:31:02.909Z,6.75
2023-03-01T01:33:30.112Z,7.18
2023-03-01T01:35:57.377Z,5.93
2023-03-01T01:38:24.551Z,5.80
2023-03-01T01:40:51.809Z,5.95
2023-03-01T01:43:26.042Z,5.70
2023-03-01T01:45:54.335Z,5.80
2023-03-01T01:48:22.226Z,4.78
2023-03-01T01:50:52.201Z,5.10
2023-03-01T01:53:19.782Z,5.27
2023-03-01T01:55:47.559Z,5.63
2023-03-01T01:58:15.651Z,5.90
2023-03-01T02:00:42.860Z,6.20
2023-03-01T02:03:11.308Z,5.25
2023-03-01T02:05:44.620Z,5.13
2023-03-01T02:08:12.166Z,4.68
2023-03-01T02:10:39.328Z,6.25
2023-03-01T02:13:06.586Z,5.43
2023-03-01T02:15:34.711Z,6.45
2023-03-01T02:18:02.010Z,5.45
2023-03-01T02:20:32.310Z,4.78
2023-03-01T02:22:59.478Z,5.40
2023-03-01T02:25:37.795Z,5.70
2023-03-01T02:28:17.112Z,5.60
2023-03-01T02:31:04.563Z,5.05
2023-03-01T02:33:34.431Z,5.07
2023-03-01T02:36:02.326Z,4.40
2023-03-01T02:38:30.065Z,5.23
2023-03-01T02:40:57.221Z,5.07
2023-03-01T02:43:24.756Z,4.72
2023-03-01T02:45:52.226Z,4.20
2023-03-01T02:48:19.677Z,5.97
2023-03-01T02:50:52.636Z,5.53
2023-03-01T02:53:38.685Z,4.80
2023-03-01T02:56:05.937Z,4.78
2023-03-01T02:58:33.089Z,4.38
2023-03-01T03:01:01.949Z,4.75
2023-03-01T03:03:29.130Z,5.03
2023-03-01T03:05:56.315Z,5.63
2023-03-01T03:08:25.128Z,4.53
2023-03-01T03:10:52.637Z,5.03
2023-03-01T03:13:20.194Z,4.80
2023-03-01T03:15:47.424Z,4.95
2023-03-01T03:18:15.365Z,3.85
2023-03-01T03:20:43.093Z,6.13
2023-03-01T03:23:10.254Z,5.22
2023-03-01T03:25:40.455Z,4.88
2023-03-01T03:28:11.035Z,5.10
2023-03-01T03:30:39.931Z,4.70
2023-03-01T03:33:07.607Z,6.00
2023-03-01T03:35:35.584Z,6.13
2023-03-01T03:38:03.707Z,5.50
2023-03-01T03:40:34.188Z,5.55
2023-03-01T03:43:01.398Z,5.97
2023-03-01T03:45:28.679Z,5.60
2023-03-01T03:47:55.838Z,6.85
2023-03-01T03:50:22.979Z,6.18
2023-03-01T03:52:50.140Z,6.70
2023-03-01T03:55:20.330Z,5.13
2023-03-01T03:57:52.502Z,3.97
2023-03-01T04:00:20.645Z,4.30
2023-03-01T04:02:48.019Z,5.53
2023-03-01T04:05:15.776Z,3.75
2023-03-01T04:07:43.108Z,5.63
2023-03-01T04:10:13.144Z,4.63
2023-03-01T04:12:40.353Z,4.88
2023-03-01T04:15:17.266Z,5.25
2023-03-01T04:17:44.806Z,5.10
2023-03-01T04:20:12.452Z,5.35
2023-03-01T04:22:40.090Z,5.35
2023-03-01T04:25:07.919Z,4.78
2023-03-01T04:27:35.606Z,4.75
2023-03-01T04:30:03.016Z,4.97
2023-03-01T04:32:30.226Z,4.90
2023-03-01T04:34:57.393Z,5.40
2023-03-01T04:37:25.096Z,5.40
2023-03-01T04:39:52.782Z,4.70
2023-03-01T04:42:20.025Z,7.87
2023-03-01T04:44:47.265Z,4.90
2023-03-01T04:47:14.442Z,3.95
2023-03-01T04:49:41.583Z,5.40
2023-03-01T04:52:08.798Z,5.53
2023-03-01T04:54:36.406Z,4.20
2023-03-01T04:57:03.997Z,5.75
2023-03-01T04:59:31.125Z,4.85
2023-03-01T05:01:58.469Z,6.03
2023-03-01T05:04:26.008Z,5.15
2023-03-01T05:06:54.629Z,5.82
2023-03-01T05:09:21.914Z,4.07
2023-03-01T05:11:49.209Z,4.35
2023-03-01T05:14:16.528Z,4.90
2023-03-01T05:16:43.694Z,5.90
2023-03-01T05:19:16.341Z,5.27
2023-03-01T05:22:04.796Z,5.68
2023-03-01T05:24:32.408Z,7.07
2023-03-01T05:26:59.822Z,4.90
2023-03-01T05:29:27.235Z,5.70
2023-03-01T05:31:54.954Z,6.05
2023-03-01T05:34:28.936Z,6.90
2023-03-01T05:36:56.315Z,5.30
2023-03-01T05:39:27.124Z,4.43
2023-03-01T05:41:58.536Z,4.67
2023-03-01T05:44:26.351Z,5.15
2023-03-01T05:46:53.840Z,6.88
2023-03-01T05:49:21.168Z,6.82
2023-03-01T05:51:51.908Z,5.65
2023-03-01T05:54:19.370Z,5.55
2023-03-01T05:56:46.738Z,5.43
2023-03-01T05:59:14.824Z,6.78
2023-03-01T06:01:42.003Z,4.53
2023-03-01T06:04:09.261Z,6.00
2023-03-01T06:06:38.449Z,5.90
2023-03-01T06:09:08.191Z,6.63
2023-03-01T06:11:36.049Z,5.32
2023-03-01T06:14:03.339Z,5.82
2023-03-01T06:16:30.810Z,5.53
2023-03-01T06:18:58.227Z,5.13
2023-03-01T06:21:25.429Z,6.10
2023-03-01T06:23:52.926Z,7.07
2023-03-01T06:26:20.287Z,5.72
2023-03-01T06:28:47.419Z,6.03
2023-03-01T06:31:14.634Z,6.80
2023-03-01T06:33:41.864Z,6.03
2023-03-01T06:36:10.479Z,6.72
2023-03-01T06:38:37.754Z,6.47
2023-03-01T06:41:04.955Z,5.75
2023-03-01T06:43:32.151Z,5.38
2023-03-01T06:45:59.320Z,6.53
2023-03-01T06:48:26.482Z,6.82
2023-03-01T06:50:53.760Z,5.25
2023-03-01T06:53:21.657Z,4.35
2023-03-01T06:55:48.824Z,7.05
2023-03-01T06:58:15.988Z,5.65
2023-03-01T07:00:44.527Z,4.63
2023-03-01T07:03:11.721Z,4.63
2023-03-01T07:05:38.922Z,4.43
2023-03-01T07:08:06.146Z,5.35
2023-03-01T07:10:33.389Z,5.95
2023-03-01T07:13:00.690Z,5.25
2023-03-01T07:15:28.122Z,6.30
2023-03-01T07:17:55.383Z,5.15
2023-03-01T07:20:26.581Z,5.75
2023-03-01T07:22:54.303Z,6.45
2023-03-01T07:25:21.503Z,6.28
2023-03-01T07:27:54.991Z,6.18
2023-03-01T07:30:22.470Z,7.67
2023-03-01T07:32:49.867Z,7.45
2023-03-01T07:35:17.255Z,22.23
2023-03-01T07:37:44.428Z,103.10
2023-03-01T07:40:11.916Z,74.75
2023-03-01T07:42:39.094Z,122.95
2023-03-01T07:45:06.713Z,77.93
2023-03-01T07:47:33.919Z,48.03
2023-03-01T07:50:02.198Z,21.80
2023-03-01T07:52:29.406Z,14.53
2023-03-01T07:54:56.622Z,8.98
2023-03-01T07:57:23.916Z,9.48
2023-03-01T07:59:51.100Z,9.05
2023-03-01T08:02:18.353Z,9.10
2023-03-01T08:04:45.544Z,8.52
2023-03-01T08:07:12.794Z,10.80
2023-03-01T08:09:40.006Z,10.57
2023-03-01T08:12:07.489Z,7.65
2023-03-01T08:14:34.780Z,8.70
2023-03-01T08:17:03.970Z,8.35
2023-03-01T08:19:31.298Z,9.10
2023-03-01T08:21:59.240Z,7.53
2023-03-01T08:24:26.569Z,8.93
2023-03-01T08:26:53.723Z,9.25
2023-03-01T08:29:20.877Z,8.82
2023-03-01T08:31:48.255Z,9.25
2023-03-01T08:34:16.135Z,9.60
2023-03-01T08:36:43.976Z,8.68
2023-03-01T08:39:11.884Z,8.30
2023-03-01T08:41:39.163Z,12.43
2023-03-01T08:44:06.495Z,8.38
2023-03-01T08:46:35.215Z,10.27
2023-03-01T08:49:02.461Z,8.73
2023-03-01T08:51:30.374Z,8.43
2023-03-01T08:53:57.630Z,10.05
2023-03-01T08:56:24.898Z,9.00
2023-03-01T08:58:52.130Z,9.37
2023-03-01T09:01:20.017Z,10.43
2023-03-01T09:03:47.297Z,10.73
2023-03-01T09:06:14.986Z,9.43
2023-03-01T09:08:43.325Z,14.50
2023-03-01T09:11:11.681Z,11.07
2023-03-01T09:13:38.956Z,12.53
2023-03-01T09:16:07.471Z,15.13
2023-03-01T09:18:34.931Z,18.35
2023-03-01T09:21:02.933Z,14.50
2023-03-01T09:23:30.114Z,13.38
2023-03-01T09:25:57.245Z,16.02
2023-03-01T09:28:29.714Z,15.52
2023-03-01T09:31:01.103Z,14.45
2023-03-01T09:33:28.757Z,14.93
2023-03-01T09:36:02.630Z,16.08
2023-03-01T09:38:29.877Z,14.43
2023-03-01T09:40:57.035Z,12.55
2023-03-01T09:46:11.239Z,12.88
2023-03-01T09:48:45.580Z,12.95
2023-03-01T09:51:14.841Z,14.20
2023-03-01T09:53:42.026Z,12.55
2023-03-01T09:56:12.297Z,15.50
2023-03-01T09:58:41.224Z,13.77
2023-03-01T10:01:32.657Z,16.33
2023-03-01T10:04:19.043Z,15.70
2023-03-01T10:06:47.484Z,15.15
2023-03-01T10:09:15.881Z,14.95
2023-03-01T10:11:49.069Z,16.42
2023-03-01T10:14:35.017Z,12.80
2023-03-01T10:17:14.609Z,14.48
2023-03-01T10:19:42.755Z,15.70
2023-03-01T10:22:18.444Z,20.38
2023-03-01T10:24:47.627Z,17.00
2023-03-01T10:27:24.871Z,15.50
2023-03-01T10:29:58.153Z,17.52
2023-03-01T10:32:25.443Z,20.42
2023-03-01T10:34:52.679Z,14.65
2023-03-01T10:37:21.926Z,15.73
2023-03-01T10:39:59.304Z,14.97
2023-03-01T10:42:31.114Z,16.60
2023-03-01T10:44:58.313Z,16.97
2023-03-01T10:47:26.546Z,13.80
2023-03-01T10:50:04.910Z,17.13
2023-03-01T10:52:33.357Z,16.30
2023-03-01T10:55:02.457Z,16.52
2023-03-01T10:57:30.714Z,14.45
2023-03-01T11:00:17.928Z,15.63
2023-03-01T11:02:45.064Z,16.92
2023-03-01T11:05:16.077Z,13.53
2023-03-01T11:07:54.069Z,14.57
2023-03-01T11:10:22.086Z,15.70
2023-03-01T11:12:49.242Z,18.83
2023-03-01T11:15:26.977Z,15.05
2023-03-01T11:18:00.819Z,14.00
2023-03-01T11:20:37.088Z,13.52
2023-03-01T11:23:14.516Z,12.40
2023-03-01T11:25:43.247Z,16.42
2023-03-01T11:28:12.662Z,14.73
2023-03-01T11:31:07.735Z,14.98
2023-03-01T11:33:56.115Z,11.77
2023-03-01T11:36:32.203Z,15.05
2023-03-01T11:38:59.399Z,12.48
2023-03-01T11:41:31.238Z,11.45
2023-03-01T11:43:59.862Z,12.32
2023-03-01T11:46:27.104Z,15.18
2023-03-01T11:49:01.021Z,11.75
2023-03-01T11:51:47.056Z,12.63
2023-03-01T11:54:29.613Z,13.23
2023-03-01T11:56:57.638Z,11.98
2023-03-01T11:59:35.017Z,13.80
2023-03-01T12:02:24.953Z,12.97
2023-03-01T12:04:57.023Z,12.38
2023-03-01T12:07:43.042Z,13.02
2023-03-01T12:10:30.490Z,11.90
2023-03-01T12:13:16.257Z,13.52
2023-03-01T12:16:02.351Z,14.35
2023-03-01T12:18:29.535Z,14.48
2023-03-01T12:20:56.651Z,13.20
2023-03-01T12:23:30.795Z,15.73
2023-03-01T12:26:07.557Z,16.40
2023-03-01T12:28:37.619Z,15.70
2023-03-01T12:31:21.828Z,16.80
2023-03-01T12:33:56.683Z,20.65
2023-03-01T12:36:30.200Z,15.68
2023-03-01T12:39:00.351Z,18.90
2023-03-01T12:41:39.584Z,16.88
2023-03-01T12:44:25.828Z,18.60
2023-03-01T12:47:22.551Z,19.15
2023-03-01T12:50:03.359Z,20.02
2023-03-01T12:52:41.220Z,19.10
2023-03-01T12:55:10.546Z,18.00
2023-03-01T12:57:44.873Z,21.17
2023-03-01T13:00:27.650Z,19.02
2023-03-01T13:03:12.669Z,20.85
2023-03-01T13:05:49.192Z,19.35
2023-03-01T13:08:29.305Z,20.02
2023-03-01T13:11:03.562Z,18.20
2023-03-01T13:13:30.874Z,21.30
2023-03-01T13:15:58.155Z,19.08
2023-03-01T13:18:26.508Z,18.33
2023-03-01T13:20:54.536Z,19.50
2023-03-01T13:23:22.136Z,19.50
2023-03-01T13:26:08.741Z,18.67
2023-03-01T13:28:36.021Z,18.20
2023-03-01T13:31:06.857Z,23.37
2023-03-01T13:33:37.489Z,18.98
2023-03-01T13:36:04.887Z,21.25
2023-03-01T13:38:39.164Z,18.40
2023-03-01T13:41:06.586Z,19.48
2023-03-01T13:43:37.355Z,19.92
2023-03-01T13:46:23.431Z,21.05
2023-03-01T13:48:57.045Z,19.27
2023-03-01T13:51:27.903Z,18.58
2023-03-01T13:53:55.616Z,20.55
2023-03-01T13:56:35.706Z,20.40
2023-03-01T13:59:02.860Z,21.60
2023-03-01T14:01:31.309Z,23.00
2023-03-01T14:03:58.940Z,23.60
2023-03-01T14:06:31.909Z,23.52
2023-03-01T14:09:18.713Z,26.75
2023-03-01T14:11:52.358Z,27.40
2023-03-01T14:14:25.617Z,26.35
2023-03-01T14:16:55.592Z,29.55
2023-03-01T14:19:33.010Z,29.07
2023-03-01T14:22:05.125Z,26.25
2023-03-01T14:24:33.882Z,29.20
2023-03-01T14:27:02.678Z,32.20
2023-03-01T14:29:37.211Z,29.65
2023-03-01T14:32:14.298Z,31.58
2023-03-01T14:34:48.481Z,34.55
2023-03-01T14:37:29.081Z,34.20
2023-03-01T14:39:56.473Z,35.92
2023-03-01T14:42:24.328Z,35.70
2023-03-01T14:44:52.222Z,36.00
2023-03-01T14:47:48.730Z,33.85
2023-03-01T14:50:21.617Z,37.40
2023-03-01T14:52:49.242Z,33.80
2023-03-01T14:55:19.536Z,34.35
2023-03-01T14:57:47.267Z,36.25
2023-03-01T15:00:28.270Z,32.83
2023-03-01T15:02:55.868Z,34.42
2023-03-01T15:05:28.003Z,35.72
2023-03-01T15:07:55.195Z,37.07
2023-03-01T15:10:23.784Z,35.78
2023-03-01T15:12:50.984Z,40.33
2023-03-01T15:15:31.033Z,36.03
2023-03-01T15:17:58.958Z,39.65
2023-03-01T15:20:26.907Z,37.22
2023-03-01T15:22:54.541Z,35.53
2023-03-01T15:25:25.408Z,36.92
2023-03-01T15:27:53.332Z,37.42
2023-03-01T15:30:22.572Z,36.03
2023-03-01T15:32:49.728Z,36.47
2023-03-01T15:35:35.796Z,37.83
2023-03-01T15:38:03.044Z,34.75
2023-03-01T15:40:33.729Z,35.03
2023-03-01T15:43:05.162Z,35.20
2023-03-01T15:45:34.954Z,39.83
2023-03-01T15:48:16.465Z,38.78
2023-03-01T15:50:46.838Z,34.67
2023-03-01T15:53:15.497Z,37.42
2023-03-01T15:55:42.734Z,42.95
2023-03-01T15:58:12.988Z,38.45
2023-03-01T16:00:48.645Z,41.75
2023-03-01T16:03:25.259Z,48.78
2023-03-01T16:05:52.573Z,56.47
2023-03-01T16:08:20.177Z,56.75
2023-03-01T16:10:47.379Z,47.35
2023-03-01T16:13:14.600Z,55.17
2023-03-01T16:15:41.858Z,41.95
2023-03-01T16:18:11.199Z,41.17
2023-03-01T16:20:39.579Z,41.45
2023-03-01T16:23:07.607Z,46.28
2023-03-01T16:25:34.811Z,38.50
2023-03-01T16:28:05.778Z,44.33
2023-03-01T16:30:33.876Z,40.05
2023-03-01T16:33:02.213Z,52.65
2023-03-01T16:35:30.141Z,44.42
2023-03-01T16:37:57.408Z,47.53
2023-03-01T16:40:26.953Z,50.08
2023-03-01T16:42:54.256Z,47.00
2023-03-01T16:45:25.493Z,45.15
2023-03-01T16:47:55.653Z,42.88
2023-03-01T16:50:23.394Z,52.77
2023-03-01T16:52:50.614Z,44.97
2023-03-01T16:55:17.935Z,44.75
2023-03-01T16:57:45.171Z,46.55
2023-03-01T17:00:13.873Z,47.70
2023-03-01T17:02:42.176Z,48.45
2023-03-01T17:05:10.883Z,44.67
2023-03-01T17:07:38.288Z,45.30
2023-03-01T17:10:06.110Z,45.83
2023-03-01T17:12:34.902Z,44.88
2023-03-01T17:15:02.085Z,47.90
2023-03-01T17:17:29.251Z,47.65
2023-03-01T17:19:57.317Z,46.67
2023-03-01T17:22:24.539Z,49.03
2023-03-01T17:24:51.931Z,48.33
2023-03-01T17:27:19.384Z,54.55
2023-03-01T17:29:46.546Z,55.88
2023-03-01T17:32:13.879Z,53.75
2023-03-01T17:34:41.760Z,82.18
2023-03-01T17:37:08.896Z,77.20
2023-03-01T17:39:36.521Z,59.75
2023-03-01T17:42:05.232Z,52.60
2023-03-01T17:44:34.316Z,53.22
2023-03-01T17:47:01.950Z,55.47
2023-03-01T17:49:29.236Z,55.75
2023-03-01T17:51:56.390Z,52.33
2023-03-01T17:54:23.702Z,43.72
2023-03-01T17:56:51.280Z,44.47
2023-03-01T17:59:18.608Z,45.55
2023-03-01T18:01:45.868Z,43.38
2023-03-01T18:04:13.047Z,53.28
2023-03-01T18:06:41.000Z,43.90
2023-03-01T18:09:08.498Z,43.63
2023-03-01T18:11:35.825Z,51.25
2023-03-01T18:14:03.101Z,49.97
2023-03-01T18:16:32.093Z,43.60
2023-03-01T18:18:59.538Z,42.25
2023-03-01T18:21:26.828Z,40.33
2023-03-01T18:23:54.685Z,44.20
2023-03-01T18:26:22.631Z,39.67
2023-03-01T18:28:50.874Z,107.18
2023-03-01T18:31:18.866Z,95.00
2023-03-01T18:33:46.516Z,76.90
2023-03-01T18:36:18.130Z,57.05
2023-03-01T18:38:45.300Z,55.97
2023-03-01T18:41:12.493Z,56.83
2023-03-01T18:43:39.758Z,49.33
2023-03-01T18:46:07.043Z,59.45
2023-03-01T18:48:36.140Z,45.75
2023-03-01T18:51:13.235Z,53.92
2023-03-01T18:53:40.460Z,42.72
2023-03-01T18:56:08.828Z,48.97
2023-03-01T18:58:36.663Z,48.80
2023-03-01T19:01:06.494Z,57.83
2023-03-01T19:03:33.691Z,47.00
2023-03-01T19:06:02.023Z,41.83
2023-03-01T19:08:30.469Z,50.50
2023-03-01T19:10:58.345Z,46.45
2023-03-01T19:13:25.590Z,41.22
2023-03-01T19:15:53.067Z,45.00
2023-03-01T19:18:21.308Z,64.50
2023-03-01T19:20:50.589Z,50.22
2023-03-01T19:23:17.923Z,38.33
2023-03-01T19:25:45.941Z,60.70
2023-03-01T19:28:13.148Z,54.90
2023-03-01T19:30:40.425Z,35.33
2023-03-01T19:33:07.712Z,39.80
2023-03-01T19:35:35.364Z,44.63
2023-03-01T19:38:02.547Z,65.50
2023-03-01T19:40:29.748Z,46.05
2023-03-01T19:42:56.892Z,54.47
2023-03-01T19:45:32.905Z,46.03
2023-03-01T19:48:00.312Z,42.53
2023-03-01T19:50:27.518Z,55.58
2023-03-01T19:52:54.689Z,51.47
2023-03-01T19:55:21.918Z,36.00
2023-03-01T19:57:49.229Z,36.92
2023-03-01T20:00:17.921Z,104.50
2023-03-01T20:02:45.256Z,66.63
2023-03-01T20:05:12.496Z,42.88
2023-03-01T20:07:39.652Z,44.20
2023-03-01T20:10:07.089Z,41.05
2023-03-01T20:12:36.418Z,40.92
2023-03-01T20:15:03.680Z,37.67
2023-03-01T20:17:30.906Z,30.40
2023-03-01T20:19:58.171Z,30.55
2023-03-01T20:22:25.492Z,43.63
2023-03-01T20:24:52.748Z,45.80
2023-03-01T20:27:19.980Z,62.78
2023-03-01T20:29:47.728Z,33.00
2023-03-01T20:32:15.035Z,43.03
2023-03-01T20:34:42.269Z,28.25
2023-03-01T20:37:09.458Z,42.97
2023-03-01T20:39:36.701Z,34.22
2023-03-01T20:42:04.624Z,30.88
2023-03-01T20:44:31.777Z,30.60
2023-03-01T20:47:00.187Z,30.63
2023-03-01T20:49:27.394Z,23.85
2023-03-01T20:51:54.772Z,34.47
2023-03-01T20:54:21.973Z,32.35
2023-03-01T20:56:49.197Z,23.70
2023-03-01T20:59:16.337Z,28.45
2023-03-01T21:01:43.520Z,42.30
2023-03-01T21:04:10.717Z,25.08
2023-03-01T21:06:39.013Z,30.85
2023-03-01T21:09:06.352Z,57.55
2023-03-01T21:11:33.538Z,28.70
2023-03-01T21:14:01.590Z,29.27
2023-03-01T21:16:28.974Z,40.05
2023-03-01T21:18:56.210Z,27.13
2023-03-01T21:21:24.046Z,25.30
2023-03-01T21:23:51.234Z,25.73
2023-03-01T21:26:22.569Z,30.95
2023-03-01T21:28:50.808Z,28.70
2023-03-01T21:31:18.013Z,48.88
2023-03-01T21:33:49.072Z,19.02
2023-03-01T21:36:16.299Z,22.10
2023-03-01T21:38:43.947Z,25.73
2023-03-01T21:41:12.056Z,20.75
2023-03-01T21:43:39.378Z,20.02
2023-03-01T21:46:08.369Z,18.42
2023-03-01T21:48:35.628Z,42.22
2023-03-01T21:51:02.940Z,27.92
2023-03-01T21:53:30.964Z,39.33
2023-03-01T21:55:59.034Z,24.42
2023-03-01T21:58:28.123Z,31.92
2023-03-01T22:00:55.820Z,28.80
2023-03-01T22:03:23.226Z,23.55
2023-03-01T22:05:57.085Z,27.33
2023-03-01T22:08:24.252Z,25.42
2023-03-01T22:10:51.529Z,26.70
2023-03-01T22:13:18.773Z,47.83
2023-03-01T22:15:46.298Z,27.63
2023-03-01T22:18:13.570Z,24.60
2023-03-01T22:20:40.880Z,27.13
2023-03-01T22:23:08.079Z,22.58
2023-03-01T22:25:40.544Z,59.03
2023-03-01T22:28:07.669Z,59.25
2023-03-01T22:30:35.884Z,23.08
2023-03-01T22:33:03.060Z,25.85
2023-03-01T22:35:30.280Z,44.38
2023-03-01T22:37:57.505Z,37.17
2023-03-01T22:40:24.708Z,56.72
2023-03-01T22:42:51.924Z,23.27
2023-03-01T22:45:19.131Z,47.10
2023-03-01T22:47:46.279Z,37.80
2023-03-01T22:50:14.097Z,25.07
2023-03-01T22:52:41.315Z,26.85
2023-03-01T22:55:08.954Z,26.13
2023-03-01T22:57:36.110Z,39.65
2023-03-01T23:00:04.753Z,33.45
2023-03-01T23:02:34.788Z,34.28
2023-03-01T23:05:03.338Z,31.95
2023-03-01T23:07:30.469Z,30.60
2023-03-01T23:10:02.127Z,28.50
2023-03-01T23:12:29.757Z,27.17
2023-03-01T23:14:56.906Z,31.42
2023-03-01T23:17:24.288Z,66.15
2023-03-01T23:19:51.418Z,40.28
2023-03-01T23:22:20.013Z,41.15
2023-03-01T23:24:47.670Z,32.77
2023-03-01T23:27:16.845Z,59.90
2023-03-01T23:29:44.571Z,36.72
2023-03-01T23:32:11.891Z,28.67
2023-03-01T23:34:43.868Z,55.33
2023-03-01T23:37:11.206Z,23.90
2023-03-01T23:39:38.355Z,31.35
2023-03-01T23:42:05.876Z,113.20
2023-03-01T23:44:33.128Z,67.10
2023-03-01T23:47:00.326Z,42.55
2023-03-01T23:49:27.946Z,42.33
2023-03-01T23:51:55.194Z,30.88
2023-03-01T23:54:23.122Z,58.30
2023-03-01T23:56:50.520Z,66.63
2023-03-01T23:59:18.622Z,32.45
